Time;durP1;ratioP1;P1;durP2;ratioP2;P2;SDS_P1;SDS_P2;PMS_P1;PMS_P2;Temp;Humidity;BMP_temperature;BMP_pressure;BME280_temperature;BME280_humidity;BME280_pressure;Samples;Min_cycle;Max_cycle;Signal;HPM_P1;HPM_P2
2021/09/08 00:01:48;;;;;;;4.57;2.25;;;;;;;14.15;67.95;101367.16;5053212;28;20540;-68
2021/09/08 00:04:14;;;;;;;5.90;2.35;;;;;;;14.33;67.50;101365.22;5053731;28;20158;-67
2021/09/08 00:06:39;;;;;;;3.80;2.20;;;;;;;14.44;66.78;101362.97;5053426;28;20036;-68
2021/09/08 00:09:05;;;;;;;5.72;2.33;;;;;;;14.50;66.59;101360.59;5053365;28;20134;-67
2021/09/08 00:11:30;;;;;;;5.35;2.33;;;;;;;14.58;66.38;101360.91;5053362;28;20491;-68
2021/09/08 00:13:56;;;;;;;5.38;2.00;;;;;;;14.61;66.43;101349.72;5053347;28;20437;-67
2021/09/08 00:16:21;;;;;;;5.07;2.35;;;;;;;14.59;66.96;101351.38;5053435;28;20096;-68
2021/09/08 00:18:47;;;;;;;4.53;2.50;;;;;;;14.47;66.85;101331.94;5053551;28;20017;-66
2021/09/08 00:21:12;;;;;;;6.10;2.42;;;;;;;14.55;67.07;101353.88;5053357;28;20083;-67
2021/09/08 00:23:38;;;;;;;8.43;2.78;;;;;;;14.59;66.85;101362.63;5053233;28;20516;-67
2021/09/08 00:26:03;;;;;;;6.75;2.47;;;;;;;14.52;67.35;101356.34;5051853;28;20039;-70
2021/09/08 00:28:29;;;;;;;6.97;2.40;;;;;;;14.66;66.95;101363.78;5052938;28;20029;-68
2021/09/08 00:30:54;;;;;;;6.90;2.38;;;;;;;14.88;66.09;101357.59;5052140;28;20029;-67
2021/09/08 00:33:19;;;;;;;5.53;2.70;;;;;;;14.87;66.41;101359.31;5052944;28;20033;-68
2021/09/08 00:35:45;;;;;;;7.95;2.88;;;;;;;14.56;66.44;101298.44;5052979;28;20060;-66
2021/09/08 00:38:12;;;;;;;4.95;2.20;;;;;;;15.04;65.87;101359.88;5052920;28;20503;-68
2021/09/08 00:40:39;;;;;;;6.60;2.30;;;;;;;15.06;65.49;101362.53;5052595;28;20029;-68
2021/09/08 00:43:04;;;;;;;6.40;2.60;;;;;;;15.19;64.86;101358.63;5052887;28;20082;-70
2021/09/08 00:45:30;;;;;;;5.68;2.90;;;;;;;15.24;64.72;101357.06;5053020;28;20029;-70
2021/09/08 00:47:55;;;;;;;7.70;2.67;;;;;;;14.80;65.73;101359.06;5052826;28;20021;-68
2021/09/08 00:50:21;;;;;;;4.20;2.50;;;;;;;14.93;65.00;101337.84;5046033;28;20025;-67
2021/09/08 00:52:48;;;;;;;5.15;2.28;;;;;;;14.93;65.27;101356.03;5052419;28;20458;-68
2021/09/08 00:55:13;;;;;;;5.00;2.40;;;;;;;14.91;65.35;101346.44;5052390;28;20028;-68
2021/09/08 00:57:40;;;;;;;10.02;2.67;;;;;;;14.88;65.27;101334.22;5052232;28;20037;-68
2021/09/08 01:00:07;;;;;;;4.35;2.60;;;;;;;14.87;65.61;101354.09;5052387;28;20021;-68
2021/09/08 01:02:33;;;;;;;4.35;2.22;;;;;;;14.79;65.65;101357.28;5052231;28;20056;-66
2021/09/08 01:04:58;;;;;;;6.47;2.13;;;;;;;14.82;65.44;101347.00;5052224;28;20467;-71
2021/09/08 01:07:24;;;;;;;4.53;2.45;;;;;;;14.70;66.15;101350.06;5043525;28;20040;-71
2021/09/08 01:09:49;;;;;;;3.72;2.20;;;;;;;14.77;65.70;101348.56;5032155;28;20025;-67
2021/09/08 01:12:16;;;;;;;6.05;2.15;;;;;;;14.77;66.09;101345.97;5030059;28;20061;-68
2021/09/08 01:14:42;;;;;;;8.18;2.50;;;;;;;14.67;66.28;101344.78;5032584;28;20021;-70
2021/09/08 01:17:08;;;;;;;4.85;2.53;;;;;;;14.70;66.14;101324.97;5032224;28;20026;-73
2021/09/08 01:19:35;;;;;;;4.53;2.50;;;;;;;14.79;65.55;101332.19;5032175;28;20476;-68
2021/09/08 01:22:01;;;;;;;4.35;2.40;;;;;;;14.79;65.52;101339.09;5031899;28;20026;-67
2021/09/08 01:24:27;;;;;;;4.65;2.53;;;;;;;14.79;65.64;101333.88;5031958;28;20052;-69
2021/09/08 01:26:55;;;;;;;3.75;2.20;;;;;;;14.59;66.35;101315.00;5032647;28;20503;-68
2021/09/08 01:29:21;;;;;;;5.22;2.47;;;;;;;14.72;66.08;101338.88;5031985;28;20030;-68
2021/09/08 01:31:58;;;;;;;4.57;2.50;;;;;;;14.71;65.81;101331.03;5050930;28;20078;-68
2021/09/08 01:34:24;;;;;;;4.10;2.50;;;;;;;14.75;65.84;101334.63;5032142;28;20033;-68
2021/09/08 01:36:52;;;;;;;5.45;2.30;;;;;;;14.74;65.38;101343.25;5051395;28;20033;-66
2021/09/08 01:39:19;;;;;;;3.78;2.20;;;;;;;14.55;66.56;101321.78;5051443;28;20040;-68
2021/09/08 01:41:45;;;;;;;3.25;2.10;;;;;;;14.71;66.22;101329.31;5052001;28;20029;-66
2021/09/08 01:44:11;;;;;;;4.78;2.00;;;;;;;14.61;66.31;101322.00;5051863;28;20044;-66
2021/09/08 01:46:36;;;;;;;6.32;2.88;;;;;;;14.71;66.04;101333.63;5040954;28;20029;-68
2021/09/08 01:49:02;;;;;;;5.85;2.45;;;;;;;14.60;66.25;101314.16;5041443;28;20021;-69
2021/09/08 01:51:28;;;;;;;4.53;2.17;;;;;;;14.73;66.47;101331.97;5034839;28;20036;-69
2021/09/08 01:53:54;;;;;;;4.38;2.17;;;;;;;14.71;66.74;101324.09;5030741;28;20057;-68
2021/09/08 01:56:19;;;;;;;3.30;2.38;;;;;;;14.74;67.00;101320.72;5031671;28;20033;-68
2021/09/08 01:58:45;;;;;;;6.35;2.78;;;;;;;14.70;66.55;101319.78;5031362;28;20108;-68
2021/09/08 02:01:11;;;;;;;4.55;2.45;;;;;;;14.69;67.12;101325.78;5034063;28;20032;-67
2021/09/08 02:03:37;;;;;;;7.32;2.60;;;;;;;14.69;66.21;101325.78;5051469;28;20090;-68
2021/09/08 02:06:23;;;;;;;5.28;2.78;;;;;;;14.89;66.06;101330.75;5051380;28;20020;-67
2021/09/08 02:08:50;;;;;;;6.22;2.33;;;;;;;14.75;65.53;101287.84;5050074;28;20518;-69
2021/09/08 02:11:16;;;;;;;4.95;2.40;;;;;;;15.04;65.31;101323.47;5040517;28;20030;-69
2021/09/08 02:13:42;;;;;;;4.93;2.30;;;;;;;15.11;65.06;101321.94;5037067;28;20022;-68
2021/09/08 02:16:07;;;;;;;4.85;2.60;;;;;;;14.84;65.10;101254.34;5033746;28;20021;-69
2021/09/08 02:18:33;;;;;;;5.32;2.40;;;;;;;15.29;64.57;101315.56;5039948;28;20049;-70
2021/09/08 02:20:58;;;;;;;4.53;2.30;;;;;;;15.22;64.97;101316.22;5047239;28;20032;-73
2021/09/08 02:23:24;;;;;;;3.50;2.50;;;;;;;15.21;64.63;101320.50;5050561;28;20029;-67
2021/09/08 02:25:49;;;;;;;8.65;2.70;;;;;;;15.24;64.59;101320.63;5050599;28;20082;-72
2021/09/08 02:28:18;;;;;;;5.88;2.45;;;;;;;15.12;65.11;101312.44;5046299;28;20021;-66
2021/09/08 02:30:45;;;;;;;5.25;2.50;;;;;;;14.99;65.47;101317.25;5025498;28;20044;-68
2021/09/08 02:33:10;;;;;;;6.22;2.55;;;;;;;14.79;65.25;101274.09;5039102;28;20033;-69
2021/09/08 02:35:36;;;;;;;5.63;2.58;;;;;;;15.04;65.68;101319.97;5040813;28;20024;-67
2021/09/08 02:38:01;;;;;;;4.97;2.42;;;;;;;15.08;65.58;101314.06;5040416;28;20043;-68
2021/09/08 02:40:27;;;;;;;5.72;2.55;;;;;;;15.15;65.65;101321.22;5045881;28;20175;-70
2021/09/08 02:42:52;;;;;;;5.38;2.38;;;;;;;15.10;65.21;101303.69;5050328;28;20413;-66
2021/09/08 02:45:17;;;;;;;5.75;2.60;;;;;;;15.11;65.21;101313.25;5051325;28;20029;-71
2021/09/08 02:47:43;;;;;;;4.65;2.40;;;;;;;14.89;65.98;101304.75;5054416;28;20025;-71
2021/09/08 02:50:09;;;;;;;6.25;2.40;;;;;;;14.72;66.69;101323.28;5054349;28;20029;-66
2021/09/08 02:52:35;;;;;;;5.18;2.70;;;;;;;14.78;66.72;101326.91;5054820;28;20084;-68
2021/09/08 02:55:00;;;;;;;4.97;2.45;;;;;;;14.70;66.64;101319.78;5053657;28;20072;-66
2021/09/08 02:57:26;;;;;;;5.90;2.78;;;;;;;14.59;66.79;101326.25;5054607;28;20076;-69
2021/09/08 02:59:51;;;;;;;5.45;2.35;;;;;;;14.50;67.53;101318.16;5054454;28;20083;-71
2021/09/08 03:02:16;;;;;;;4.22;2.33;;;;;;;14.34;67.02;101269.97;5054706;28;20082;-72
2021/09/08 03:04:42;;;;;;;8.13;3.03;;;;;;;14.85;66.33;101327.19;5054853;28;20028;-68
2021/09/08 03:07:07;;;;;;;6.28;2.67;;;;;;;15.08;65.51;101328.75;5054754;28;20025;-67
2021/09/08 03:09:33;;;;;;;9.48;2.70;;;;;;;15.23;64.58;101316.25;5054309;28;20169;-68
2021/09/08 03:11:58;;;;;;;4.03;2.30;;;;;;;15.33;64.23;101325.25;5054383;28;20037;-73
2021/09/08 03:14:24;;;;;;;6.65;2.58;;;;;;;15.50;64.52;101320.53;5054467;28;20036;-68
2021/09/08 03:16:49;;;;;;;4.65;2.50;;;;;;;15.50;64.51;101329.25;5054599;28;20037;-66
2021/09/08 03:19:15;;;;;;;3.80;2.30;;;;;;;15.53;64.58;101318.03;5054155;28;20430;-67
2021/09/08 03:21:40;;;;;;;8.73;2.50;;;;;;;15.38;64.75;101313.25;5054099;28;20025;-68
2021/09/08 03:24:05;;;;;;;6.50;2.90;;;;;;;15.40;64.80;101315.88;5054241;28;20029;-68
2021/09/08 03:26:31;;;;;;;5.15;2.60;;;;;;;15.30;64.50;101283.50;5054290;28;20040;-70
2021/09/08 03:28:56;;;;;;;7.85;2.58;;;;;;;14.92;65.20;101241.59;5054084;28;20398;-68
2021/09/08 03:31:22;;;;;;;6.88;2.90;;;;;;;15.23;64.67;101287.66;5054087;28;20481;-68
2021/09/08 03:33:48;;;;;;;7.45;2.47;;;;;;;15.30;64.43;101301.72;5053902;28;20476;-72
2021/09/08 03:36:13;;;;;;;8.60;2.53;;;;;;;15.29;64.02;101298.25;5053194;28;20033;-66
2021/09/08 03:38:39;;;;;;;7.18;2.80;;;;;;;14.83;64.44;101226.59;5042194;28;20025;-67
2021/09/08 03:41:04;;;;;;;7.05;2.50;;;;;;;15.26;64.90;101300.72;5036378;28;20030;-68
2021/09/08 03:43:30;;;;;;;6.15;2.80;;;;;;;15.05;65.23;101308.72;5034020;28;20021;-67
2021/09/08 03:45:55;;;;;;;7.90;3.03;;;;;;;15.08;64.87;101294.94;5034191;28;20040;-67
2021/09/08 03:48:20;;;;;;;7.93;3.45;;;;;;;15.19;64.45;101302.28;5033771;28;20021;-68
2021/09/08 03:50:46;;;;;;;9.20;2.60;;;;;;;15.33;63.79;101326.09;5033991;28;20025;-68
2021/09/08 03:53:11;;;;;;;5.95;3.08;;;;;;;15.37;63.61;101320.16;5033811;28;20115;-75
2021/09/08 03:55:37;;;;;;;4.30;2.78;;;;;;;15.25;63.10;101278.16;5033794;28;20083;-69
2021/09/08 03:58:02;;;;;;;5.45;2.88;;;;;;;15.56;63.02;101317.25;5032770;28;20033;-70
2021/09/08 04:00:27;;;;;;;9.10;3.42;;;;;;;15.45;63.27;101285.69;5033469;28;20032;-67
2021/09/08 04:02:53;;;;;;;16.23;3.83;;;;;;;15.64;63.75;101332.25;5033275;28;20032;-67
2021/09/08 04:05:18;;;;;;;6.03;3.05;;;;;;;15.67;62.80;101321.91;5033695;28;20026;-66
2021/09/08 04:07:44;;;;;;;6.57;3.33;;;;;;;15.60;62.74;101319.09;5033394;28;20026;-67
2021/09/08 04:10:10;;;;;;;7.22;3.08;;;;;;;15.43;62.66;101293.44;5033927;28;20491;-68
2021/09/08 04:12:35;;;;;;;6.13;2.80;;;;;;;15.59;63.62;101312.13;5053408;28;20059;-66
2021/09/08 04:15:01;;;;;;;4.57;2.90;;;;;;;15.64;64.14;101319.25;5053162;28;20064;-68
2021/09/08 04:17:26;;;;;;;6.00;2.88;;;;;;;15.36;64.03;101315.81;5034114;28;20506;-67
2021/09/08 04:19:53;;;;;;;8.20;3.15;;;;;;;15.19;64.76;101322.22;5035255;28;20056;-66
2021/09/08 04:22:19;;;;;;;5.40;2.67;;;;;;;14.96;64.42;101272.91;5040566;28;20721;-72
2021/09/08 04:24:44;;;;;;;4.93;2.92;;;;;;;15.05;64.50;101290.53;5033004;28;20025;-67
2021/09/08 04:27:10;;;;;;;9.15;2.85;;;;;;;15.06;64.94;101305.31;5040300;28;20028;-70
2021/09/08 04:29:35;;;;;;;6.47;3.15;;;;;;;14.94;65.96;101300.63;5052166;28;20033;-68
2021/09/08 04:32:01;;;;;;;7.70;3.30;;;;;;;14.97;66.05;101312.81;5041798;28;20025;-66
2021/09/08 04:34:27;;;;;;;10.40;3.78;;;;;;;15.04;66.07;101306.97;5033063;28;20026;-68
2021/09/08 04:36:52;;;;;;;8.20;3.17;;;;;;;14.98;66.66;101318.06;5042324;28;20028;-67
2021/09/08 04:39:17;;;;;;;5.10;2.90;;;;;;;14.49;67.57;101283.50;5052943;28;20029;-67
2021/09/08 04:41:43;;;;;;;5.90;2.90;;;;;;;14.56;68.28;101329.63;5053185;28;20532;-66
2021/09/08 04:44:08;;;;;;;5.55;2.75;;;;;;;14.69;67.89;101320.59;5052651;28;20036;-68
2021/09/08 04:46:34;;;;;;;6.30;3.30;;;;;;;14.31;68.06;101288.06;5052513;28;20024;-67
2021/09/08 04:48:59;;;;;;;10.15;3.60;;;;;;;14.67;67.85;101331.78;5052653;28;20032;-67
2021/09/08 04:51:25;;;;;;;6.63;2.88;;;;;;;14.65;68.06;101329.09;5052878;28;20021;-67
2021/09/08 04:53:50;;;;;;;6.78;2.67;;;;;;;14.70;67.81;101324.97;5052733;28;20049;-67
2021/09/08 04:56:16;;;;;;;21.67;3.47;;;;;;;14.69;68.10;101325.78;5043936;28;20048;-67
2021/09/08 04:58:41;;;;;;;5.55;3.17;;;;;;;14.78;67.53;101329.50;5038552;28;20040;-68
2021/09/08 05:01:07;;;;;;;7.68;2.63;;;;;;;14.91;66.89;101338.63;5039256;28;20029;-67
2021/09/08 05:03:33;;;;;;;7.25;3.15;;;;;;;14.97;68.05;101320.63;5052416;28;20036;-68
2021/09/08 05:05:59;;;;;;;7.70;3.25;;;;;;;14.84;66.46;101285.53;5052559;28;20061;-66
2021/09/08 05:08:24;;;;;;;6.32;2.95;;;;;;;15.05;66.67;101326.94;5052138;28;20028;-68
2021/09/08 05:10:50;;;;;;;4.55;2.88;;;;;;;15.11;67.23;101324.53;5052226;28;20040;-67
2021/09/08 05:13:15;;;;;;;12.85;3.17;;;;;;;15.14;67.14;101336.75;5052025;28;20032;-67
2021/09/08 05:15:41;;;;;;;5.10;3.13;;;;;;;15.12;66.41;101315.91;5051832;28;20036;-67
2021/09/08 05:18:06;;;;;;;8.45;2.75;;;;;;;15.21;66.38;101323.13;5045530;28;20037;-70
2021/09/08 05:20:31;;;;;;;7.53;3.17;;;;;;;15.29;66.34;101336.34;5032338;28;20039;-69
2021/09/08 05:22:57;;;;;;;7.30;3.42;;;;;;;15.34;66.02;101330.47;5029893;28;20479;-69
2021/09/08 05:25:23;;;;;;;6.55;2.90;;;;;;;15.32;66.24;101318.25;5037171;28;20029;-69
2021/09/08 05:27:49;;;;;;;8.55;3.13;;;;;;;15.39;66.58;101321.91;5049002;28;20032;-67
2021/09/08 05:30:14;;;;;;;15.50;4.22;;;;;;;15.43;67.11;101322.06;5050218;28;20040;-69
2021/09/08 05:32:40;;;;;;;20.48;5.20;;;;;;;15.62;65.52;101317.44;5050546;28;20028;-66
2021/09/08 05:35:06;;;;;;;7.70;3.55;;;;;;;15.67;65.00;101314.09;5038101;28;20029;-67
2021/09/08 05:37:31;;;;;;;8.88;2.88;;;;;;;15.72;66.70;101318.59;5046762;28;20055;-68
2021/09/08 05:39:57;;;;;;;8.90;3.50;;;;;;;15.67;65.94;101301.09;5043826;28;20026;-67
2021/09/08 05:42:22;;;;;;;10.70;2.80;;;;;;;15.75;65.50;101311.75;5032122;28;20041;-70
2021/09/08 05:44:47;;;;;;;11.35;3.30;;;;;;;15.77;65.11;101311.78;5034155;28;20045;-68
2021/09/08 05:47:13;;;;;;;11.48;3.67;;;;;;;15.78;66.26;101321.38;5031688;28;20403;-67
2021/09/08 05:49:38;;;;;;;8.73;3.35;;;;;;;15.80;65.90;101312.75;5031678;28;20044;-65
2021/09/08 05:52:04;;;;;;;6.82;3.00;;;;;;;15.69;66.99;101277.72;5031603;28;20030;-67
2021/09/08 05:54:30;;;;;;;9.55;3.50;;;;;;;15.97;65.86;101278.53;5031605;28;20080;-68
2021/09/08 05:56:55;;;;;;;12.70;3.40;;;;;;;16.25;65.90;101306.22;5031581;28;20154;-69
2021/09/08 05:59:21;;;;;;;11.32;3.97;;;;;;;16.39;65.75;101313.53;5031543;28;20399;-67
2021/09/08 06:01:46;;;;;;;16.08;4.13;;;;;;;16.32;65.12;101295.13;5041958;28;20476;-70
2021/09/08 06:04:12;;;;;;;9.23;2.80;;;;;;;16.53;64.64;101312.16;5048354;28;20422;-68
2021/09/08 06:06:37;;;;;;;12.98;4.15;;;;;;;16.40;63.70;101264.06;5051577;28;20044;-70
2021/09/08 06:09:03;;;;;;;8.27;2.95;;;;;;;16.73;64.84;101310.06;5051551;28;20025;-67
2021/09/08 06:11:28;;;;;;;9.20;2.80;;;;;;;16.81;64.23;101307.66;5051309;28;20410;-68
2021/09/08 06:13:55;;;;;;;7.70;2.70;;;;;;;16.88;63.36;101299.13;5051403;28;20422;-67
2021/09/08 06:16:22;;;;;;;6.40;2.50;;;;;;;16.91;63.14;101291.44;5051156;28;20036;-67
2021/09/08 06:18:47;;;;;;;5.00;2.50;;;;;;;17.04;63.10;101310.84;5051590;28;20025;-67
2021/09/08 06:21:13;;;;;;;6.18;2.70;;;;;;;17.08;62.34;101303.97;5055880;28;20041;-67
2021/09/08 06:23:38;;;;;;;6.72;2.55;;;;;;;17.01;62.75;101266.44;5057919;28;20025;-67
2021/09/08 06:26:04;;;;;;;8.13;2.90;;;;;;;17.39;62.94;101313.38;5058176;28;20031;-67
2021/09/08 06:28:30;;;;;;;8.00;2.65;;;;;;;17.44;62.13;101306.53;5057885;28;20028;-68
2021/09/08 06:30:56;;;;;;;10.52;3.10;;;;;;;17.53;61.54;101305.00;5057688;28;20025;-67
2021/09/08 06:33:21;;;;;;;7.45;2.38;;;;;;;17.58;60.74;101312.09;5057823;28;20508;-67
2021/09/08 06:35:47;;;;;;;5.63;2.00;;;;;;;17.70;60.03;101321.03;5058022;28;20025;-67
2021/09/08 06:38:12;;;;;;;6.07;2.47;;;;;;;17.78;60.92;101314.22;5058150;28;20021;-67
2021/09/08 06:40:38;;;;;;;4.72;2.10;;;;;;;17.71;60.50;101302.78;5057854;28;20025;-67
2021/09/08 06:43:03;;;;;;;5.57;1.90;;;;;;;17.86;60.26;101315.28;5057741;28;20027;-67
2021/09/08 06:45:29;;;;;;;4.93;2.20;;;;;;;17.92;60.05;101312.78;5057601;28;20471;-66
2021/09/08 06:47:54;;;;;;;8.68;3.08;;;;;;;18.03;59.67;101312.13;5057672;28;20034;-67
2021/09/08 06:50:20;;;;;;;12.02;2.22;;;;;;;18.23;59.46;101308.19;5056710;28;20059;-65
2021/09/08 06:52:45;;;;;;;6.10;2.10;;;;;;;18.08;58.62;101285.25;5047371;28;20037;-70
2021/09/08 06:55:11;;;;;;;4.47;1.70;;;;;;;18.32;58.32;101324.88;5040234;28;20036;-69
2021/09/08 06:57:36;;;;;;;5.20;2.30;;;;;;;18.35;58.23;101319.72;5039620;28;20400;-70
2021/09/08 07:00:03;;;;;;;8.52;2.35;;;;;;;18.39;58.65;101317.22;5038912;28;20407;-70
2021/09/08 07:02:28;;;;;;;6.47;2.08;;;;;;;18.34;58.99;101317.97;5038675;28;20036;-70
2021/09/08 07:04:54;;;;;;;10.05;2.90;;;;;;;18.34;58.68;101321.44;5039180;28;20030;-67
2021/09/08 07:07:20;;;;;;;9.13;2.03;;;;;;;18.42;57.73;101326.84;5037969;28;20021;-69
2021/09/08 07:09:46;;;;;;;4.57;2.28;;;;;;;18.41;58.16;101327.69;5039141;28;20510;-67
2021/09/08 07:12:11;;;;;;;5.55;2.05;;;;;;;18.18;58.22;101275.88;5040461;28;20502;-67
2021/09/08 07:14:37;;;;;;;4.70;1.90;;;;;;;18.49;58.07;101314.75;5036884;28;20014;-66
2021/09/08 07:17:02;;;;;;;6.60;2.08;;;;;;;18.67;56.98;101316.81;5039657;28;20029;-68
2021/09/08 07:19:28;;;;;;;5.15;2.20;;;;;;;18.81;57.45;101314.44;5040916;28;21889;-70
2021/09/08 07:21:53;;;;;;;6.22;2.35;;;;;;;18.90;57.69;101314.56;5036528;28;20032;-69
2021/09/08 07:24:19;;;;;;;5.18;2.40;;;;;;;18.94;56.66;101307.69;5038765;28;20038;-69
2021/09/08 07:26:45;;;;;;;5.05;2.13;;;;;;;18.99;56.95;101316.47;5038647;28;20029;-71
2021/09/08 07:29:11;;;;;;;6.18;2.20;;;;;;;19.01;56.72;101322.63;5055024;28;20029;-71
2021/09/08 07:31:37;;;;;;;6.57;2.25;;;;;;;18.86;56.75;101290.09;5051130;28;20033;-67
2021/09/08 07:34:02;;;;;;;4.03;2.00;;;;;;;19.07;56.79;101322.72;5052385;28;20033;-63
2021/09/08 07:36:28;;;;;;;6.25;1.98;;;;;;;19.02;56.77;101319.16;5053997;28;20021;-67
2021/09/08 07:38:53;;;;;;;9.18;2.45;;;;;;;19.17;58.18;101321.13;5053504;28;20028;-70
2021/09/08 07:41:20;;;;;;;6.18;2.13;;;;;;;19.33;57.22;101317.00;5053663;28;20032;-64
2021/09/08 07:43:46;;;;;;;5.28;1.88;;;;;;;19.52;55.93;101312.91;5053659;28;20091;-64
2021/09/08 07:46:13;;;;;;;3.80;1.90;;;;;;;19.76;57.17;101321.94;5053635;28;20028;-63
2021/09/08 07:48:39;;;;;;;7.00;2.30;;;;;;;19.83;54.60;101332.53;5053514;28;20028;-66
2021/09/08 07:51:06;;;;;;;7.35;2.75;;;;;;;19.80;54.67;101321.09;5053460;28;20483;-64
2021/09/08 07:53:32;;;;;;;8.30;2.30;;;;;;;20.10;53.51;101325.88;5052443;28;20045;-66
2021/09/08 07:55:58;;;;;;;15.93;4.05;;;;;;;20.23;55.66;101326.03;5053152;28;20025;-65
2021/09/08 07:58:23;;;;;;;4.40;1.83;;;;;;;20.28;53.55;101324.31;5053236;28;20025;-65
2021/09/08 08:00:48;;;;;;;10.95;3.58;;;;;;;20.27;54.11;101322.56;5053557;28;20025;-66
2021/09/08 08:03:14;;;;;;;4.05;2.10;;;;;;;20.24;54.25;101309.41;5052001;28;20163;-66
2021/09/08 08:05:39;;;;;;;7.57;2.08;;;;;;;20.29;54.28;101310.34;5053289;28;20025;-67
2021/09/08 08:08:05;;;;;;;9.73;2.42;;;;;;;20.36;52.50;101312.16;5053246;28;20105;-66
2021/09/08 08:10:31;;;;;;;5.65;2.50;;;;;;;20.41;53.06;101317.44;5053442;28;20059;-66
2021/09/08 08:12:57;;;;;;;7.35;2.60;;;;;;;20.44;51.85;101310.50;5052910;28;20031;-65
2021/09/08 08:15:24;;;;;;;10.20;2.50;;;;;;;20.41;51.34;101294.75;5052194;28;20387;-65
2021/09/08 08:17:49;;;;;;;4.35;2.30;;;;;;;20.20;51.20;101269.19;5053226;28;20183;-66
2021/09/08 08:20:16;;;;;;;6.00;2.03;;;;;;;20.42;50.86;101299.09;5053011;28;20520;-68
2021/09/08 08:22:42;;;;;;;21.33;4.63;;;;;;;20.47;50.83;101299.16;5053009;28;20029;-70
2021/09/08 08:25:11;;;;;;;17.20;5.20;;;;;;;20.47;51.65;101307.91;5052737;28;20028;-64
2021/09/08 08:27:36;;;;;;;19.23;5.28;;;;;;;20.55;51.48;101297.50;5034144;28;20411;-65
2021/09/08 08:30:04;;;;;;;16.05;4.55;;;;;;;20.76;50.84;101296.84;5052916;28;20062;-68
2021/09/08 08:32:29;;;;;;;16.60;4.68;;;;;;;20.99;50.32;101296.97;5052771;28;20024;-68
2021/09/08 08:34:54;;;;;;;5.68;3.10;;;;;;;21.06;51.16;101287.44;5052972;28;20036;-69
2021/09/08 08:37:20;;;;;;;9.10;4.10;;;;;;;21.14;50.25;101288.34;5052463;28;20506;-64
2021/09/08 08:39:46;;;;;;;13.25;4.60;;;;;;;21.29;48.70;101284.06;5052665;28;20023;-71
2021/09/08 08:42:23;;;;;;;10.35;4.97;;;;;;;21.36;49.75;101287.56;5052432;28;20024;-64
2021/09/08 08:44:50;;;;;;;13.23;4.07;;;;;;;21.22;47.98;101283.16;5051580;28;20055;-65
2021/09/08 08:47:17;;;;;;;9.50;4.50;;;;;;;21.23;48.93;101278.75;5052670;28;20029;-69
2021/09/08 08:49:44;;;;;;;11.50;4.50;;;;;;;21.37;48.53;101279.72;5052734;28;20040;-67
2021/09/08 08:52:10;;;;;;;26.35;7.53;;;;;;;21.48;48.55;101283.28;5033488;28;20562;-65
2021/09/08 08:54:35;;;;;;;19.77;6.47;;;;;;;21.44;47.25;101255.22;5033632;28;20116;-65
2021/09/08 08:57:01;;;;;;;18.73;6.60;;;;;;;21.53;48.60;101264.91;5052840;28;20384;-66
2021/09/08 08:59:27;;;;;;;28.35;7.18;;;;;;;21.74;47.60;101277.28;5037664;28;20100;-70
2021/09/08 09:01:52;;;;;;;20.17;6.57;;;;;;;21.86;48.92;101231.75;5040171;28;20132;-68
2021/09/08 09:04:18;;;;;;;25.55;7.10;;;;;;;22.19;47.21;101261.63;5052244;28;20083;-68
2021/09/08 09:06:48;;;;;;;30.42;7.63;;;;;;;22.37;48.26;101255.53;5050873;28;20094;-65
2021/09/08 09:09:19;;;;;;;22.60;6.57;;;;;;;22.39;47.65;101247.66;5052054;28;20024;-66
2021/09/08 09:11:49;;;;;;;10.13;4.50;;;;;;;22.27;46.73;101254.63;5051944;28;20545;-68
2021/09/08 09:14:18;;;;;;;22.55;5.55;;;;;;;21.92;46.81;101231.78;5051912;28;20029;-65
2021/09/08 09:16:44;;;;;;;18.35;5.43;;;;;;;22.00;47.38;101255.47;5051894;28;20044;-64
2021/09/08 09:19:11;;;;;;;10.45;5.85;;;;;;;21.84;47.21;101219.50;5051512;28;20033;-66
2021/09/08 09:21:39;;;;;;;11.75;4.30;;;;;;;21.98;46.97;101250.19;5051705;28;20416;-64
2021/09/08 09:24:06;;;;;;;8.70;4.18;;;;;;;22.03;46.84;101254.59;5051627;28;20488;-66
2021/09/08 09:26:35;;;;;;;7.63;3.28;;;;;;;21.91;47.73;101248.44;5051714;28;20021;-67
2021/09/08 09:29:10;;;;;;;7.32;3.35;;;;;;;21.88;47.49;101247.53;5051443;28;20384;-65
2021/09/08 09:31:57;;;;;;;21.40;3.97;;;;;;;21.95;48.13;101250.19;5051420;28;20063;-71
2021/09/08 09:34:24;;;;;;;20.15;4.85;;;;;;;21.66;47.34;101181.78;5051589;28;20037;-64
2021/09/08 09:36:54;;;;;;;6.93;2.88;;;;;;;22.06;47.95;101236.19;5051721;28;20495;-66
2021/09/08 09:39:21;;;;;;;6.43;2.47;;;;;;;22.09;48.79;101229.19;5051769;28;20090;-65
2021/09/08 09:41:47;;;;;;;9.00;3.38;;;;;;;21.86;48.20;101226.50;5051540;28;20479;-65
2021/09/08 09:44:14;;;;;;;11.90;4.32;;;;;;;21.82;48.99;101232.66;5051217;28;20029;-64
2021/09/08 09:46:42;;;;;;;5.88;2.85;;;;;;;21.82;49.36;101224.75;5042658;28;20028;-65
2021/09/08 09:49:09;;;;;;;11.95;2.75;;;;;;;21.85;49.55;101231.78;5041353;28;20020;-65
2021/09/08 09:51:35;;;;;;;8.35;2.65;;;;;;;21.79;48.09;101225.63;5036001;28;20045;-66
2021/09/08 09:54:01;;;;;;;5.85;2.20;;;;;;;21.80;48.40;101215.97;5045647;28;20076;-67
2021/09/08 09:56:26;;;;;;;10.02;2.50;;;;;;;21.84;48.01;101217.72;5038093;28;20488;-71
2021/09/08 09:58:52;;;;;;;21.08;5.22;;;;;;;22.06;47.60;101221.28;5051236;28;20150;-67
2021/09/08 10:01:19;;;;;;;22.42;4.68;;;;;;;22.36;48.45;101195.88;5050651;28;20364;-71
2021/09/08 10:03:45;;;;;;;14.68;2.90;;;;;;;22.39;46.45;101201.19;5050048;28;20411;-66
2021/09/08 10:06:11;;;;;;;6.78;2.35;;;;;;;22.46;45.51;101202.06;5051455;28;20033;-66
2021/09/08 10:08:49;;;;;;;7.15;2.38;;;;;;;22.06;45.33;101142.41;5049877;28;20536;-66
2021/09/08 10:11:20;;;;;;;6.05;2.45;;;;;;;22.19;46.36;101155.56;5051176;28;20025;-66
2021/09/08 10:13:55;;;;;;;10.70;2.13;;;;;;;22.36;46.68;101198.50;5049356;28;20174;-70
2021/09/08 10:16:22;;;;;;;3.85;1.98;;;;;;;22.33;45.21;101190.63;5051482;28;20105;-65
2021/09/08 10:18:48;;;;;;;7.38;2.45;;;;;;;22.43;45.69;101187.16;5051264;28;20416;-66
2021/09/08 10:21:19;;;;;;;10.75;2.42;;;;;;;22.75;45.31;101187.97;5051122;28;20025;-69
2021/09/08 10:23:56;;;;;;;6.28;2.00;;;;;;;22.74;45.15;101192.38;5032656;28;20033;-66
2021/09/08 10:26:28;;;;;;;8.02;2.63;;;;;;;22.80;43.47;101177.44;5050887;28;20021;-68
2021/09/08 10:28:56;;;;;;;10.25;2.40;;;;;;;22.96;44.42;101184.41;5049809;28;20047;-64
2021/09/08 10:31:23;;;;;;;17.67;3.97;;;;;;;22.94;42.49;101170.34;5050890;28;20025;-65
2021/09/08 10:33:56;;;;;;;13.95;3.45;;;;;;;22.94;42.48;101166.00;5050302;28;20074;-67
2021/09/08 10:36:21;;;;;;;11.02;2.92;;;;;;;23.19;40.70;101163.28;5031993;28;20663;-66
2021/09/08 10:39:11;;;;;;;8.43;2.25;;;;;;;23.20;41.40;101172.06;5050250;28;20053;-71
2021/09/08 10:41:51;;;;;;;22.75;4.32;;;;;;;23.22;41.91;101175.56;5051032;28;20032;-66
2021/09/08 10:44:19;;;;;;;18.55;4.85;;;;;;;23.39;39.96;101162.31;5049396;28;20036;-70
2021/09/08 10:46:49;;;;;;;12.50;2.67;;;;;;;23.47;39.43;101167.56;5050813;28;20575;-64
2021/09/08 10:49:36;;;;;;;5.20;1.73;;;;;;;23.67;39.88;101155.13;5050295;28;20071;-65
2021/09/08 10:52:03;;;;;;;15.05;3.20;;;;;;;23.88;40.14;101156.72;5050826;28;20104;-66
2021/09/08 10:54:28;;;;;;;5.90;2.25;;;;;;;23.97;39.68;101145.28;5050580;28;20028;-66
2021/09/08 10:56:54;;;;;;;4.07;1.92;;;;;;;23.78;39.13;101127.84;5050886;28;20029;-66
2021/09/08 10:59:19;;;;;;;13.90;2.78;;;;;;;23.55;40.21;101128.84;5048642;28;20043;-66
2021/09/08 11:01:45;;;;;;;8.50;2.67;;;;;;;23.59;39.39;101118.28;5039355;28;20400;-72
2021/09/08 11:04:14;;;;;;;10.10;2.38;;;;;;;23.68;39.78;101119.97;5041794;28;20071;-66
2021/09/08 11:06:41;;;;;;;;;;;;;;;23.71;39.18;101137.53;5052534;28;20082;-66
2021/09/08 11:09:10;;;;;;;26.23;3.90;;;;;;;23.74;39.16;101148.94;5054563;28;19913;-65
2021/09/08 11:11:57;;;;;;;22.15;3.35;;;;;;;24.15;38.98;101135.44;5045575;28;20029;-68
2021/09/08 11:14:49;;;;;;;8.50;1.92;;;;;;;24.55;37.88;101132.44;5054372;28;20035;-65
2021/09/08 11:17:32;;;;;;;7.97;1.70;;;;;;;24.55;38.17;101135.94;5045672;28;20411;-65
2021/09/08 11:20:03;;;;;;;26.80;4.57;;;;;;;24.42;36.80;101126.41;5039517;28;20064;-68
2021/09/08 11:22:29;;;;;;;8.70;2.40;;;;;;;24.49;36.80;101114.03;5035176;28;20018;-65